Time;durP1;ratioP1;P1;durP2;ratioP2;P2;SDS_P1;SDS_P2;PMS_P1;PMS_P2;Temp;Humidity;BMP_temperature;BMP_pressure;BME280_temperature;BME280_humidity;BME280_pressure;Samples;Min_cycle;Max_cycle;Signal;HPM_P1;HPM_P2
2023/01/27 00:00:10;;;;;;;3.47;1.00;;;;;;;;;;5022301;28;20033;-63
2023/01/27 00:02:37;;;;;;;3.30;1.15;;;;;;;;;;5018501;28;20092;-64
2023/01/27 00:05:03;;;;;;;8.23;2.30;;;;;;;;;;5020173;28;20061;-67
2023/01/27 00:07:30;;;;;;;7.20;2.90;;;;;;;;;;5017989;28;20083;-64
2023/01/27 00:09:57;;;;;;;6.10;2.00;;;;;;;;;;5020084;28;20044;-65
2023/01/27 00:15:11;;;;;;;4.90;0.93;;;;;;;;;;5019348;28;20458;-64
2023/01/27 00:17:37;;;;;;;3.78;0.70;;;;;;;;;;5020818;28;20094;-65
2023/01/27 00:20:05;;;;;;;2.58;0.65;;;;;;;;;;5023200;28;21191;-64
2023/01/27 00:25:17;;;;;;;1.67;0.50;;;;;;;;;;5018468;28;20107;-65
2023/01/27 00:27:43;;;;;;;1.52;0.60;;;;;;;;;;5019490;28;20124;-64
2023/01/27 00:30:11;;;;;;;2.25;0.60;;;;;;;;;;5017738;28;20124;-65
2023/01/27 00:35:24;;;;;;;1.90;0.60;;;;;;;;;;5018038;28;20110;-65
2023/01/27 00:38:09;;;;;;;2.60;0.60;;;;;;;;;;5009874;28;20042;-65
2023/01/27 00:40:36;;;;;;;1.63;0.50;;;;;;;;;;5008899;28;20044;-67
2023/01/27 00:43:02;;;;;;;2.00;0.60;;;;;;;;;;5008887;28;20415;-65
2023/01/27 00:45:47;;;;;;;2.58;0.68;;;;;;;;;;5007212;28;20045;-65
2023/01/27 00:48:14;;;;;;;2.83;0.80;;;;;;;;;;5008483;28;20041;-65
2023/01/27 00:50:40;;;;;;;1.70;0.57;;;;;;;;;;5005541;28;20143;-64
2023/01/27 00:53:07;;;;;;;2.42;0.70;;;;;;;;;;5008981;28;20034;-69
2023/01/27 00:55:34;;;;;;;2.60;0.70;;;;;;;;;;5006303;28;20072;-65
2023/01/27 00:58:00;;;;;;;1.52;0.55;;;;;;;;;;5010899;28;20503;-66
2023/01/27 01:00:27;;;;;;;1.95;0.50;;;;;;;;;;5013182;28;20098;-65
2023/01/27 01:02:53;;;;;;;1.95;0.70;;;;;;;;;;5012551;28;20140;-65
2023/01/27 01:05:20;;;;;;;2.33;0.70;;;;;;;;;;4995458;28;20616;-67
2023/01/27 01:07:47;;;;;;;1.35;0.50;;;;;;;;;;5007433;28;20037;-66
2023/01/27 01:10:13;;;;;;;1.95;0.60;;;;;;;;;;4995119;28;20038;-65
2023/01/27 01:12:40;;;;;;;4.00;0.50;;;;;;;;;;5007053;28;20061;-64
2023/01/27 01:15:07;;;;;;;3.50;0.60;;;;;;;;;;5005863;28;20037;-66
2023/01/27 01:17:33;;;;;;;1.05;0.40;;;;;;;;;;5020384;28;20080;-65
2023/01/27 01:20:00;;;;;;;1.45;0.50;;;;;;;;;;5020826;28;20066;-67
2023/01/27 01:22:27;;;;;;;1.90;0.60;;;;;;;;;;5022105;28;20059;-65
2023/01/27 01:24:53;;;;;;;2.15;0.73;;;;;;;;;;5020953;28;20148;-70
2023/01/27 01:27:20;;;;;;;2.63;0.70;;;;;;;;;;5020066;28;20034;-65
2023/01/27 01:29:47;;;;;;;2.60;0.60;;;;;;;;;;5020459;28;20032;-64
2023/01/27 01:32:13;;;;;;;2.17;0.60;;;;;;;;;;5019786;28;20029;-70
2023/01/27 01:34:40;;;;;;;1.65;0.50;;;;;;;;;;5018128;28;20093;-66
2023/01/27 01:37:07;;;;;;;2.13;0.70;;;;;;;;;;5001293;28;20517;-65
2023/01/27 01:39:33;;;;;;;2.28;0.65;;;;;;;;;;5012344;28;20124;-66
2023/01/27 01:42:00;;;;;;;1.92;0.60;;;;;;;;;;5017323;28;20134;-68
2023/01/27 01:44:28;;;;;;;1.83;0.50;;;;;;;;;;5019362;28;20064;-65
2023/01/27 01:46:55;;;;;;;1.77;0.70;;;;;;;;;;5018605;28;20034;-65
2023/01/27 01:49:24;;;;;;;2.90;0.52;;;;;;;;;;5018619;28;20494;-67
2023/01/27 01:51:53;;;;;;;2.38;0.60;;;;;;;;;;5019266;28;20030;-67
2023/01/27 01:54:30;;;;;;;2.55;0.70;;;;;;;;;;5018474;28;20030;-65
2023/01/27 01:56:57;;;;;;;4.05;0.63;;;;;;;;;;5018685;28;20033;-67
2023/01/27 01:59:26;;;;;;;2.55;0.70;;;;;;;;;;5019730;28;20600;-65
2023/01/27 02:01:55;;;;;;;4.53;0.77;;;;;;;;;;5019280;28;20131;-68
2023/01/27 02:04:24;;;;;;;3.15;0.70;;;;;;;;;;5019005;28;20094;-65
2023/01/27 02:06:54;;;;;;;2.50;0.80;;;;;;;;;;5021811;28;20095;-64
2023/01/27 02:09:21;;;;;;;4.05;0.90;;;;;;;;;;5021066;28;20369;-66
2023/01/27 02:11:48;;;;;;;2.00;0.70;;;;;;;;;;5021167;28;20042;-70
2023/01/27 02:14:16;;;;;;;2.20;0.73;;;;;;;;;;5021378;28;20047;-70
2023/01/27 02:16:43;;;;;;;3.22;0.80;;;;;;;;;;5020390;28;20034;-66
2023/01/27 02:19:14;;;;;;;2.90;0.80;;;;;;;;;;5021490;28;20049;-65
2023/01/27 02:21:40;;;;;;;3.25;0.77;;;;;;;;;;5020815;28;20498;-66
2023/01/27 02:24:11;;;;;;;2.92;1.00;;;;;;;;;;5021965;28;20509;-65
2023/01/27 02:26:44;;;;;;;3.90;1.00;;;;;;;;;;5020457;28;20033;-65
2023/01/27 02:29:15;;;;;;;2.83;0.88;;;;;;;;;;5021172;28;20048;-65
2023/01/27 02:31:42;;;;;;;5.40;1.25;;;;;;;;;;5002736;28;20033;-65
2023/01/27 02:34:21;;;;;;;3.83;1.30;;;;;;;;;;5020940;28;20037;-65
2023/01/27 02:36:54;;;;;;;5.10;1.48;;;;;;;;;;5021027;28;20048;-65
2023/01/27 02:39:22;;;;;;;4.90;1.23;;;;;;;;;;5020473;28;20061;-66
2023/01/27 02:41:56;;;;;;;4.70;1.10;;;;;;;;;;5022209;28;20116;-66
2023/01/27 02:44:23;;;;;;;6.32;1.08;;;;;;;;;;5020412;28;20059;-66
2023/01/27 02:46:49;;;;;;;3.60;1.30;;;;;;;;;;5021453;28;20041;-67
2023/01/27 02:49:16;;;;;;;3.78;1.00;;;;;;;;;;5019543;28;20045;-65
2023/01/27 02:51:43;;;;;;;2.67;0.90;;;;;;;;;;5021752;28;20041;-66
2023/01/27 02:54:10;;;;;;;4.88;1.33;;;;;;;;;;5022337;28;20125;-67
2023/01/27 02:56:36;;;;;;;4.40;1.10;;;;;;;;;;5018713;28;20045;-65
2023/01/27 02:59:03;;;;;;;2.80;1.08;;;;;;;;;;5020077;28;20049;-64
2023/01/27 03:01:31;;;;;;;4.68;1.20;;;;;;;;;;5020204;28;20036;-65
2023/01/27 03:03:58;;;;;;;7.15;1.33;;;;;;;;;;5020871;28;20045;-65
2023/01/27 03:06:25;;;;;;;4.68;1.17;;;;;;;;;;5020715;28;20034;-65
2023/01/27 03:08:51;;;;;;;5.28;1.25;;;;;;;;;;5022212;28;20079;-64
2023/01/27 03:12:18;;;;;;;5.57;1.40;;;;;;;;;;5020283;28;20043;-67
2023/01/27 03:14:06;;;;;;;2.55;0.80;;;;;;;;;;5019608;28;20040;-65
2023/01/27 03:19:18;;;;;;;3.67;1.23;;;;;;;;;;5020963;28;20760;-66
2023/01/27 03:21:44;;;;;;;3.47;1.20;;;;;;;;;;5022075;28;20038;-65
2023/01/27 03:24:11;;;;;;;2.63;0.80;;;;;;;;;;5021082;28;20613;-66
2023/01/27 03:26:38;;;;;;;4.85;1.20;;;;;;;;;;5020458;28;20807;-66
2023/01/27 03:31:50;;;;;;;4.60;1.05;;;;;;;;;;5020278;28;20180;-65
2023/01/27 03:34:16;;;;;;;5.35;1.17;;;;;;;;;;5021872;28;20558;-65
2023/01/27 03:47:44;;;;;;;2.38;0.93;;;;;;;;;;4994847;28;20088;-66
2023/01/27 03:50:18;;;;;;;2.90;0.98;;;;;;;;;;5023990;28;20561;-68
2023/01/27 03:53:01;;;;;;;5.35;1.30;;;;;;;;;;5022075;28;20049;-66
2023/01/27 03:55:28;;;;;;;;;;;;;;;;;;5021206;28;20045;-66
2023/01/27 03:57:55;;;;;;;3.50;1.08;;;;;;;;;;5021380;28;19971;-65
2023/01/27 04:00:22;;;;;;;5.65;1.33;;;;;;;;;;5021282;28;20151;-66
2023/01/27 04:08:19;;;;;;;5.05;1.30;;;;;;;;;;5022302;28;20057;-69
2023/01/27 04:11:53;;;;;;;5.13;1.52;;;;;;;;;;5007973;28;20034;-66
2023/01/27 04:13:32;;;;;;;4.80;1.23;;;;;;;;;;5004049;28;20045;-68
2023/01/27 04:15:59;;;;;;;4.70;1.30;;;;;;;;;;5002834;28;20034;-67
2023/01/27 04:18:26;;;;;;;4.05;1.20;;;;;;;;;;5003510;28;20115;-66
2023/01/27 04:20:53;;;;;;;2.88;1.00;;;;;;;;;;5001569;28;20026;-66
2023/01/27 04:23:19;;;;;;;3.88;1.02;;;;;;;;;;4999420;28;20108;-66
2023/01/27 04:25:46;;;;;;;3.72;1.20;;;;;;;;;;5018377;28;20033;-66
2023/01/27 04:28:13;;;;;;;5.47;1.15;;;;;;;;;;5018966;28;20457;-68
2023/01/27 04:30:39;;;;;;;5.07;1.10;;;;;;;;;;4991918;28;20120;-66
2023/01/27 04:33:09;;;;;;;3.72;1.42;;;;;;;;;;5002160;28;20033;-67
2023/01/27 04:35:37;;;;;;;4.40;1.30;;;;;;;;;;5015117;28;21028;-66
2023/01/27 04:38:03;;;;;;;6.03;1.50;;;;;;;;;;5018408;28;20080;-68
2023/01/27 04:40:50;;;;;;;4.47;1.70;;;;;;;;;;5008924;28;20986;-67
2023/01/27 04:43:17;;;;;;;4.90;1.63;;;;;;;;;;5004852;28;20064;-66
2023/01/27 04:45:43;;;;;;;4.47;1.48;;;;;;;;;;5008936;28;20041;-67
2023/01/27 04:48:10;;;;;;;5.07;1.50;;;;;;;;;;5012986;28;20040;-66
2023/01/27 04:50:37;;;;;;;4.75;1.60;;;;;;;;;;5012444;28;20037;-67
2023/01/27 04:53:03;;;;;;;3.65;1.38;;;;;;;;;;5011407;28;20202;-66
2023/01/27 04:55:30;;;;;;;3.63;1.25;;;;;;;;;;5002122;28;20037;-65
2023/01/27 04:57:56;;;;;;;4.32;1.48;;;;;;;;;;5010996;28;20578;-67
2023/01/27 05:00:23;;;;;;;4.63;1.73;;;;;;;;;;5010257;28;20053;-66
2023/01/27 05:02:50;;;;;;;4.65;1.95;;;;;;;;;;5011588;28;20057;-66
2023/01/27 05:05:16;;;;;;;5.13;1.92;;;;;;;;;;4994694;28;20120;-66
2023/01/27 05:07:43;;;;;;;6.47;2.03;;;;;;;;;;5009734;28;20113;-67
2023/01/27 05:10:10;;;;;;;6.28;1.88;;;;;;;;;;5000442;28;20450;-65
2023/01/27 05:12:36;;;;;;;4.22;1.70;;;;;;;;;;5017065;28;20029;-65
2023/01/27 05:15:03;;;;;;;5.07;1.77;;;;;;;;;;5023546;28;20478;-67
2023/01/27 05:17:33;;;;;;;5.43;2.17;;;;;;;;;;5005043;28;20046;-65
2023/01/27 05:20:00;;;;;;;5.28;1.90;;;;;;;;;;5000129;28;20128;-64
2023/01/27 05:22:26;;;;;;;6.22;1.92;;;;;;;;;;4997845;28;20572;-66
2023/01/27 05:24:53;;;;;;;4.90;1.90;;;;;;;;;;5007357;28;20080;-65
2023/01/27 05:27:21;;;;;;;6.03;2.20;;;;;;;;;;4998992;28;20046;-69
2023/01/27 05:29:47;;;;;;;6.32;2.20;;;;;;;;;;4996888;28;21912;-65
2023/01/27 05:32:14;;;;;;;5.72;2.47;;;;;;;;;;4999012;28;20605;-66
2023/01/27 05:34:41;;;;;;;5.88;1.90;;;;;;;;;;4997898;28;20058;-67
2023/01/27 05:37:07;;;;;;;5.00;1.88;;;;;;;;;;5000287;28;20485;-66
2023/01/27 05:39:34;;;;;;;4.32;1.73;;;;;;;;;;5001287;28;20503;-66
2023/01/27 05:42:00;;;;;;;6.15;2.10;;;;;;;;;;5004241;28;20061;-67
2023/01/27 05:44:27;;;;;;;7.55;1.67;;;;;;;;;;5001787;28;20034;-68
2023/01/27 05:46:54;;;;;;;5.22;1.67;;;;;;;;;;5003215;28;20045;-66
2023/01/27 05:49:20;;;;;;;4.68;2.05;;;;;;;;;;5003163;28;20050;-69
2023/01/27 05:51:47;;;;;;;5.20;1.88;;;;;;;;;;5003875;28;20497;-67
2023/01/27 05:54:14;;;;;;;5.32;2.00;;;;;;;;;;5003269;28;20574;-67
2023/01/27 05:56:40;;;;;;;7.25;2.00;;;;;;;;;;5002516;28;21792;-67
2023/01/27 05:59:07;;;;;;;5.90;1.90;;;;;;;;;;5003680;28;20042;-68
2023/01/27 06:01:36;;;;;;;8.20;2.13;;;;;;;;;;5002682;28;20112;-68
2023/01/27 06:04:03;;;;;;;4.57;1.80;;;;;;;;;;5002860;28;20057;-67
2023/01/27 06:06:30;;;;;;;5.28;1.85;;;;;;;;;;5011684;28;20344;-67
2023/01/27 06:08:57;;;;;;;7.32;2.03;;;;;;;;;;5002551;28;20390;-68
2023/01/27 06:11:24;;;;;;;4.57;1.85;;;;;;;;;;5002524;28;20531;-66
2023/01/27 06:13:52;;;;;;;5.28;1.90;;;;;;;;;;5003643;28;20042;-67
2023/01/27 06:16:20;;;;;;;7.70;1.60;;;;;;;;;;5002493;28;20038;-66
2023/01/27 06:18:47;;;;;;;5.20;2.00;;;;;;;;;;5014427;28;20478;-67
2023/01/27 06:21:14;;;;;;;6.28;1.77;;;;;;;;;;5007271;28;20080;-67
2023/01/27 06:23:41;;;;;;;8.73;2.20;;;;;;;;;;4996752;28;20160;-67
2023/01/27 06:26:12;;;;;;;5.78;2.10;;;;;;;;;;5011071;28;20034;-67
2023/01/27 06:28:39;;;;;;;4.60;1.60;;;;;;;;;;5001648;28;21792;-67
2023/01/27 06:31:07;;;;;;;6.10;1.73;;;;;;;;;;5014152;28;20040;-66
2023/01/27 06:33:33;;;;;;;5.47;1.70;;;;;;;;;;5002128;28;20041;-66
2023/01/27 06:36:01;;;;;;;5.32;1.85;;;;;;;;;;5000023;28;20060;-68
2023/01/27 06:38:28;;;;;;;5.88;1.83;;;;;;;;;;5003173;28;20038;-66
2023/01/27 06:40:55;;;;;;;4.38;1.60;;;;;;;;;;5001740;28;20589;-65
2023/01/27 06:43:22;;;;;;;4.10;1.20;;;;;;;;;;5001334;28;20053;-65
2023/01/27 06:45:52;;;;;;;3.45;1.05;;;;;;;;;;5002172;28;20054;-65
2023/01/27 06:48:19;;;;;;;5.25;1.10;;;;;;;;;;5004127;28;20046;-65
2023/01/27 06:50:46;;;;;;;3.47;0.93;;;;;;;;;;5020558;28;20033;-66
2023/01/27 06:53:12;;;;;;;2.70;0.80;;;;;;;;;;5015555;28;20040;-65
2023/01/27 06:55:40;;;;;;;2.22;0.70;;;;;;;;;;5020178;28;23062;-66
2023/01/27 06:58:07;;;;;;;1.65;0.60;;;;;;;;;;5021470;28;20038;-65
2023/01/27 07:00:35;;;;;;;2.40;0.82;;;;;;;;;;5021601;28;20072;-66
2023/01/27 07:03:02;;;;;;;2.38;0.70;;;;;;;;;;5022219;28;20112;-64
2023/01/27 07:05:29;;;;;;;2.20;0.70;;;;;;;;;;5021849;28;20500;-66
2023/01/27 07:07:55;;;;;;;2.13;0.60;;;;;;;;;;5022028;28;20101;-66
2023/01/27 07:10:22;;;;;;;3.25;0.80;;;;;;;;;;5021324;28;20037;-66
2023/01/27 07:12:48;;;;;;;2.95;1.00;;;;;;;;;;5022784;28;20038;-66
2023/01/27 07:15:15;;;;;;;3.78;1.13;;;;;;;;;;5022288;28;20156;-66
2023/01/27 07:17:42;;;;;;;3.42;0.82;;;;;;;;;;5021070;28;20061;-66
2023/01/27 07:20:11;;;;;;;2.15;0.73;;;;;;;;;;5022552;28;20613;-67
2023/01/27 07:22:37;;;;;;;2.40;0.80;;;;;;;;;;5019681;28;20053;-66
2023/01/27 07:25:05;;;;;;;4.53;0.90;;;;;;;;;;5020404;28;20049;-66
2023/01/27 07:27:32;;;;;;;4.95;0.90;;;;;;;;;;5020855;28;20560;-66
2023/01/27 07:29:59;;;;;;;3.17;0.90;;;;;;;;;;5021773;28;20099;-66
2023/01/27 07:32:26;;;;;;;3.13;0.90;;;;;;;;;;5020373;28;20402;-66
2023/01/27 07:34:52;;;;;;;3.30;0.98;;;;;;;;;;5022775;28;20493;-65
2023/01/27 07:37:19;;;;;;;3.05;0.88;;;;;;;;;;5021110;28;20087;-67
2023/01/27 07:39:47;;;;;;;3.00;1.10;;;;;;;;;;5020070;28;20049;-65
2023/01/27 07:42:13;;;;;;;3.47;0.90;;;;;;;;;;5019235;28;20121;-65
2023/01/27 07:44:40;;;;;;;2.90;1.00;;;;;;;;;;5020150;28;20521;-66
2023/01/27 07:47:07;;;;;;;4.78;1.30;;;;;;;;;;5020136;28;20574;-68
2023/01/27 07:49:33;;;;;;;5.32;1.30;;;;;;;;;;5020473;28;20053;-66
2023/01/27 07:52:00;;;;;;;3.45;1.00;;;;;;;;;;5021119;28;20042;-65
2023/01/27 07:54:27;;;;;;;3.70;1.10;;;;;;;;;;5017349;28;20037;-66
2023/01/27 07:56:53;;;;;;;4.50;1.00;;;;;;;;;;5016805;28;20172;-66
2023/01/27 07:59:20;;;;;;;3.20;1.00;;;;;;;;;;5020249;28;20069;-67
2023/01/27 08:01:46;;;;;;;2.70;1.00;;;;;;;;;;5014356;28;20065;-66
2023/01/27 08:04:13;;;;;;;3.22;0.90;;;;;;;;;;5020973;28;20053;-67
2023/01/27 08:06:40;;;;;;;3.80;1.02;;;;;;;;;;5019961;28;20037;-65
2023/01/27 08:09:26;;;;;;;3.40;1.10;;;;;;;;;;4997210;28;20048;-67
2023/01/27 08:11:53;;;;;;;3.47;0.90;;;;;;;;;;4997173;28;20057;-64
2023/01/27 08:14:19;;;;;;;3.55;0.93;;;;;;;;;;4997076;28;20046;-66
2023/01/27 08:16:46;;;;;;;3.47;1.10;;;;;;;;;;4998350;28;20046;-64
2023/01/27 08:19:13;;;;;;;3.78;1.20;;;;;;;;;;4997346;28;20041;-67
2023/01/27 08:21:39;;;;;;;3.85;1.13;;;;;;;;;;4986244;28;20053;-65
2023/01/27 08:24:06;;;;;;;6.05;1.30;;;;;;;;;;4996903;28;20149;-65
2023/01/27 08:26:33;;;;;;;3.72;1.25;;;;;;;;;;4996055;28;20046;-66
2023/01/27 08:28:59;;;;;;;4.63;1.55;;;;;;;;;;4980928;28;20056;-65
2023/01/27 08:31:26;;;;;;;3.15;1.33;;;;;;;;;;4974839;28;20040;-66
2023/01/27 08:33:53;;;;;;;3.15;1.35;;;;;;;;;;4997438;28;20503;-65
2023/01/27 08:36:21;;;;;;;3.35;1.50;;;;;;;;;;4996789;28;20466;-65
2023/01/27 08:38:48;;;;;;;5.50;1.60;;;;;;;;;;4997603;28;20690;-65
2023/01/27 08:41:16;;;;;;;3.63;1.80;;;;;;;;;;4982458;28;20503;-65
2023/01/27 08:44:03;;;;;;;3.35;1.60;;;;;;;;;;4934525;28;20051;-66
2023/01/27 08:46:29;;;;;;;4.25;2.13;;;;;;;;;;4940099;28;20098;-62
2023/01/27 08:48:56;;;;;;;3.58;1.80;;;;;;;;;;4955309;28;20062;-64
2023/01/27 08:51:23;;;;;;;3.67;1.60;;;;;;;;;;4953081;28;20105;-63
2023/01/27 08:53:49;;;;;;;3.53;1.80;;;;;;;;;;4955248;28;20043;-63
2023/01/27 08:56:17;;;;;;;3.30;1.52;;;;;;;;;;4953148;28;21744;-63
2023/01/27 08:58:47;;;;;;;3.50;1.60;;;;;;;;;;4952304;28;20043;-63
2023/01/27 09:01:14;;;;;;;4.25;1.60;;;;;;;;;;4954294;28;21875;-64
2023/01/27 09:03:40;;;;;;;4.10;1.90;;;;;;;;;;4954099;28;20054;-63
2023/01/27 09:06:08;;;;;;;5.00;1.65;;;;;;;;;;4954200;28;20043;-64
2023/01/27 09:08:35;;;;;;;3.72;1.70;;;;;;;;;;4954774;28;20043;-64
2023/01/27 09:11:07;;;;;;;3.50;1.48;;;;;;;;;;4954555;28;20051;-63
2023/01/27 09:13:34;;;;;;;5.82;1.58;;;;;;;;;;4954034;28;20038;-63
2023/01/27 09:16:01;;;;;;;3.45;1.50;;;;;;;;;;4969465;28;20042;-63
2023/01/27 09:18:28;;;;;;;3.10;1.30;;;;;;;;;;4953924;28;20957;-64
2023/01/27 09:20:54;;;;;;;3.55;1.00;;;;;;;;;;4968883;28;20046;-63
2023/01/27 09:23:21;;;;;;;2.67;0.98;;;;;;;;;;5018755;28;20057;-63
2023/01/27 09:25:50;;;;;;;2.20;0.80;;;;;;;;;;5018096;28;20048;-63
2023/01/27 09:28:17;;;;;;;3.53;1.08;;;;;;;;;;5019691;28;20113;-64
2023/01/27 09:30:44;;;;;;;2.50;1.08;;;;;;;;;;5018974;28;20069;-64
2023/01/27 09:33:12;;;;;;;2.53;0.90;;;;;;;;;;5020490;28;20034;-65
2023/01/27 09:35:41;;;;;;;2.42;1.05;;;;;;;;;;5019199;28;20541;-63
2023/01/27 09:38:08;;;;;;;5.50;1.20;;;;;;;;;;5021455;28;20057;-63
2023/01/27 09:40:38;;;;;;;2.22;0.75;;;;;;;;;;5010855;28;20564;-63
2023/01/27 09:43:11;;;;;;;2.60;0.95;;;;;;;;;;5018907;28;20060;-63
2023/01/27 09:45:50;;;;;;;2.90;1.17;;;;;;;;;;5017635;28;20509;-62
2023/01/27 09:48:31;;;;;;;2.78;1.00;;;;;;;;;;5020257;28;20107;-62
2023/01/27 09:51:01;;;;;;;3.00;1.27;;;;;;;;;;5019006;28;20029;-63
2023/01/27 09:53:28;;;;;;;2.97;1.13;;;;;;;;;;5009319;28;20046;-63
2023/01/27 09:56:10;;;;;;;2.95;1.10;;;;;;;;;;5018551;28;20040;-63
2023/01/27 09:58:56;;;;;;;3.88;1.13;;;;;;;;;;5020187;28;20046;-63
2023/01/27 10:01:31;;;;;;;2.70;0.95;;;;;;;;;;5018107;28;20069;-63
2023/01/27 10:04:20;;;;;;;2.35;0.75;;;;;;;;;;5014001;28;20128;-64
2023/01/27 10:06:52;;;;;;;2.97;1.00;;;;;;;;;;5000089;28;20045;-64
2023/01/27 10:09:42;;;;;;;2.70;1.00;;;;;;;;;;5019337;28;20084;-64
2023/01/27 10:12:44;;;;;;;2.17;0.70;;;;;;;;;;5008956;28;20061;-65
2023/01/27 10:15:11;;;;;;;1.92;0.70;;;;;;;;;;4931243;28;20047;-68
2023/01/27 10:17:58;;;;;;;2.58;0.90;;;;;;;;;;4996209;28;20048;-65
2023/01/27 10:20:30;;;;;;;3.05;0.77;;;;;;;;;;4977961;28;20631;-64
2023/01/27 10:22:57;;;;;;;2.22;0.80;;;;;;;;;;4992809;28;20506;-66
2023/01/27 10:25:34;;;;;;;2.35;0.80;;;;;;;;;;4993570;28;20080;-64
2023/01/27 10:28:04;;;;;;;2.08;0.70;;;;;;;;;;4999167;28;20671;-64
2023/01/27 10:30:33;;;;;;;2.08;0.70;;;;;;;;;;4997685;28;20104;-63
2023/01/27 10:33:03;;;;;;;2.42;0.80;;;;;;;;;;4999869;28;20056;-63
2023/01/27 10:35:34;;;;;;;2.35;0.77;;;;;;;;;;4994983;28;20127;-65
2023/01/27 10:38:12;;;;;;;2.03;0.73;;;;;;;;;;4995219;28;20042;-64
2023/01/27 10:40:43;;;;;;;2.95;1.02;;;;;;;;;;4995095;28;21920;-67
2023/01/27 10:43:10;;;;;;;2.80;1.00;;;;;;;;;;4993736;28;20727;-65
2023/01/27 10:45:40;;;;;;;2.60;0.75;;;;;;;;;;4971529;28;20755;-64
2023/01/27 10:48:15;;;;;;;4.43;0.98;;;;;;;;;;4980487;28;21823;-66
2023/01/27 10:50:42;;;;;;;1.92;0.80;;;;;;;;;;4999872;28;20045;-62
2023/01/27 10:53:38;;;;;;;2.33;0.80;;;;;;;;;;5022291;28;20069;-65
2023/01/27 10:56:11;;;;;;;2.83;0.90;;;;;;;;;;5007592;28;20517;-64
2023/01/27 10:58:50;;;;;;;2.45;0.90;;;;;;;;;;5019506;28;20111;-63
2023/01/27 11:01:18;;;;;;;3.22;0.90;;;;;;;;;;5021951;28;20160;-63
2023/01/27 11:03:49;;;;;;;2.92;1.10;;;;;;;;;;5021411;28;20038;-63
2023/01/27 11:06:17;;;;;;;3.10;1.10;;;;;;;;;;5022350;28;20804;-64
2023/01/27 11:08:49;;;;;;;3.00;0.90;;;;;;;;;;5021778;28;20359;-64
2023/01/27 11:14:18;;;;;;;2.55;1.00;;;;;;;;;;5019686;28;20082;-63
2023/01/27 11:16:48;;;;;;;2.30;0.80;;;;;;;;;;5002537;28;20124;-62
2023/01/27 11:19:26;;;;;;;2.20;0.70;;;;;;;;;;5020187;28;20966;-62
2023/01/27 11:21:54;;;;;;;2.85;0.73;;;;;;;;;;5020960;28;20049;-63
2023/01/27 11:24:28;;;;;;;2.80;0.80;;;;;;;;;;5018470;28;20195;-63
2023/01/27 11:26:58;;;;;;;1.98;0.70;;;;;;;;;;5020675;28;20517;-63
2023/01/27 11:29:25;;;;;;;2.03;0.60;;;;;;;;;;5016247;28;20038;-61
2023/01/27 11:32:04;;;;;;;1.98;0.70;;;;;;;;;;5017143;28;20054;-61
2023/01/27 11:34:33;;;;;;;1.92;0.70;;;;;;;;;;5020028;28;20038;-62
2023/01/27 11:37:01;;;;;;;2.65;0.60;;;;;;;;;;5002173;28;20091;-62
2023/01/27 11:39:30;;;;;;;1.73;0.60;;;;;;;;;;5020621;28;20056;-61
2023/01/27 11:41:58;;;;;;;2.10;0.60;;;;;;;;;;5020442;28;20037;-64
2023/01/27 11:44:45;;;;;;;2.00;0.60;;;;;;;;;;4978248;28;20046;-64
2023/01/27 11:47:37;;;;;;;2.42;0.77;;;;;;;;;;4977407;28;20046;-63
2023/01/27 11:50:04;;;;;;;3.08;0.65;;;;;;;;;;4958887;28;20118;-62
2023/01/27 11:52:31;;;;;;;8.88;0.80;;;;;;;;;;4977830;28;20049;-63
2023/01/27 11:54:58;;;;;;;3.38;0.85;;;;;;;;;;4979827;28;20057;-64
2023/01/27 11:57:26;;;;;;;2.20;0.70;;;;;;;;;;4978873;28;20038;-63
2023/01/27 12:00:13;;;;;;;2.42;0.57;;;;;;;;;;4976416;28;20046;-63
2023/01/27 12:03:05;;;;;;;2.40;0.70;;;;;;;;;;4913050;29;20402;-63
2023/01/27 12:05:34;;;;;;;1.90;0.60;;;;;;;;;;4915207;29;20051;-64
2023/01/27 12:08:02;;;;;;;1.88;0.60;;;;;;;;;;4918850;29;20044;-62
2023/01/27 12:10:41;;;;;;;3.40;0.63;;;;;;;;;;4916688;28;20063;-63
2023/01/27 12:13:18;;;;;;;3.40;1.00;;;;;;;;;;4915799;28;20910;-62
2023/01/27 12:15:55;;;;;;;8.82;1.10;;;;;;;;;;4916603;29;20052;-63
2023/01/27 12:18:25;;;;;;;2.85;0.70;;;;;;;;;;4917056;29;20040;-64
2023/01/27 12:21:05;;;;;;;2.85;0.70;;;;;;;;;;4917477;29;20412;-64
2023/01/27 12:23:46;;;;;;;3.05;0.68;;;;;;;;;;4956747;28;20050;-63
2023/01/27 12:26:13;;;;;;;2.72;0.80;;;;;;;;;;4955496;28;20518;-63
2023/01/27 12:28:45;;;;;;;2.17;0.70;;;;;;;;;;4958752;28;20121;-63
2023/01/27 12:31:22;;;;;;;2.55;0.60;;;;;;;;;;4958817;28;21622;-64
2023/01/27 12:33:56;;;;;;;1.95;0.70;;;;;;;;;;4973986;28;20064;-63
2023/01/27 12:36:23;;;;;;;2.05;0.50;;;;;;;;;;4986369;28;20045;-64
2023/01/27 12:38:51;;;;;;;2.28;0.70;;;;;;;;;;4998907;28;20038;-63
2023/01/27 12:41:26;;;;;;;1.83;0.60;;;;;;;;;;5000039;28;20038;-63
2023/01/27 12:43:54;;;;;;;3.08;0.70;;;;;;;;;;5007090;28;20148;-65
2023/01/27 12:46:22;;;;;;;3.55;0.60;;;;;;;;;;5000406;28;20049;-62
2023/01/27 12:48:50;;;;;;;2.13;0.70;;;;;;;;;;4999529;28;21717;-61
2023/01/27 12:51:24;;;;;;;2.25;0.65;;;;;;;;;;5000028;28;20065;-63
2023/01/27 12:53:51;;;;;;;1.33;0.55;;;;;;;;;;5012885;28;20037;-63
2023/01/27 12:56:22;;;;;;;2.00;0.70;;;;;;;;;;5001228;28;20045;-62
2023/01/27 12:58:55;;;;;;;1.48;0.63;;;;;;;;;;5019986;28;20033;-63
2023/01/27 13:01:25;;;;;;;1.60;0.60;;;;;;;;;;5020064;28;20039;-62
2023/01/27 13:04:19;;;;;;;2.63;0.80;;;;;;;;;;5011185;28;20056;-62
2023/01/27 13:06:50;;;;;;;3.35;0.90;;;;;;;;;;5009694;28;20037;-62
2023/01/27 13:09:27;;;;;;;3.13;0.75;;;;;;;;;;5008874;28;20045;-61
2023/01/27 13:11:55;;;;;;;2.47;0.70;;;;;;;;;;5007330;28;20505;-63
2023/01/27 13:14:22;;;;;;;2.92;0.65;;;;;;;;;;5008244;28;20041;-63
2023/01/27 13:16:57;;;;;;;3.05;0.90;;;;;;;;;;4992813;28;20048;-63
2023/01/27 13:19:30;;;;;;;2.45;0.90;;;;;;;;;;4980788;28;20135;-63
2023/01/27 13:21:57;;;;;;;1.67;0.68;;;;;;;;;;4989369;28;20093;-63
2023/01/27 13:24:40;;;;;;;2.05;0.70;;;;;;;;;;4994017;28;20045;-63
2023/01/27 13:27:10;;;;;;;2.83;0.85;;;;;;;;;;5007172;28;20084;-64
2023/01/27 13:29:39;;;;;;;2.03;0.68;;;;;;;;;;5001945;28;20548;-63
2023/01/27 13:32:09;;;;;;;2.15;0.90;;;;;;;;;;4976568;28;20046;-64
2023/01/27 13:34:56;;;;;;;2.20;0.70;;;;;;;;;;4990159;28;20057;-64
2023/01/27 13:37:28;;;;;;;1.75;0.60;;;;;;;;;;4944579;28;20046;-63
2023/01/27 13:39:55;;;;;;;2.17;0.70;;;;;;;;;;4997809;28;20042;-64
2023/01/27 13:42:28;;;;;;;1.90;0.98;;;;;;;;;;4997221;28;20096;-63
2023/01/27 13:44:59;;;;;;;2.00;0.65;;;;;;;;;;4999385;28;20136;-64
2023/01/27 13:47:37;;;;;;;2.70;0.70;;;;;;;;;;4991354;28;20046;-64
2023/01/27 13:50:27;;;;;;;1.48;0.75;;;;;;;;;;4995613;28;20065;-63
2023/01/27 13:52:56;;;;;;;2.30;0.55;;;;;;;;;;4990021;28;20053;-64
2023/01/27 13:55:45;;;;;;;2.40;0.70;;;;;;;;;;4992389;28;20949;-63
2023/01/27 13:58:15;;;;;;;1.75;0.65;;;;;;;;;;4949829;28;20049;-63
2023/01/27 14:00:57;;;;;;;3.83;0.77;;;;;;;;;;5001554;28;20033;-65
2023/01/27 14:03:41;;;;;;;2.13;0.70;;;;;;;;;;5002590;28;20037;-64
2023/01/27 14:06:26;;;;;;;3.15;0.65;;;;;;;;;;5003104;28;20679;-63
2023/01/27 14:08:53;;;;;;;2.95;0.85;;;;;;;;;;4997529;28;20045;-64
2023/01/27 14:11:24;;;;;;;2.40;0.90;;;;;;;;;;5020365;28;20777;-64
2023/01/27 14:14:06;;;;;;;3.83;0.70;;;;;;;;;;5022786;28;20049;-65
2023/01/27 14:16:32;;;;;;;2.50;0.80;;;;;;;;;;5007508;28;20099;-63
2023/01/27 14:19:07;;;;;;;2.50;0.68;;;;;;;;;;5022713;28;20106;-64
2023/01/27 14:21:39;;;;;;;2.47;0.65;;;;;;;;;;5020237;28;20575;-66
2023/01/27 14:24:06;;;;;;;1.95;0.60;;;;;;;;;;5016116;28;20230;-66
2023/01/27 14:26:51;;;;;;;2.17;0.68;;;;;;;;;;5021137;28;20061;-62
2023/01/27 14:29:30;;;;;;;6.13;0.80;;;;;;;;;;5023161;28;20533;-63
2023/01/27 14:32:06;;;;;;;1.80;0.52;;;;;;;;;;4988962;28;20053;-65
2023/01/27 14:34:38;;;;;;;1.98;0.70;;;;;;;;;;5001765;28;20033;-64
2023/01/27 14:37:23;;;;;;;2.20;0.70;;;;;;;;;;5001531;28;20034;-64
2023/01/27 14:40:16;;;;;;;1.25;0.45;;;;;;;;;;5013187;28;20045;-64
2023/01/27 14:43:01;;;;;;;2.30;0.63;;;;;;;;;;4993009;28;20835;-65
2023/01/27 14:45:28;;;;;;;1.40;0.60;;;;;;;;;;5003850;28;20088;-64
2023/01/27 14:48:13;;;;;;;2.28;0.70;;;;;;;;;;5001701;28;21827;-64
2023/01/27 14:50:46;;;;;;;2.05;0.60;;;;;;;;;;5012194;28;20049;-66
2023/01/27 14:53:31;;;;;;;1.85;0.60;;;;;;;;;;5003719;28;20054;-64
2023/01/27 14:56:10;;;;;;;2.30;0.60;;;;;;;;;;5008479;28;20072;-64
2023/01/27 14:58:36;;;;;;;2.45;0.63;;;;;;;;;;5002419;28;20088;-64
2023/01/27 15:01:08;;;;;;;1.58;0.50;;;;;;;;;;5003711;28;20038;-65
2023/01/27 15:03:53;;;;;;;1.50;0.60;;;;;;;;;;5001706;28;20056;-64
2023/01/27 15:06:29;;;;;;;1.30;0.40;;;;;;;;;;4998993;28;20041;-66
2023/01/27 15:09:02;;;;;;;2.15;0.60;;;;;;;;;;5002385;28;20046;-64
2023/01/27 15:11:48;;;;;;;2.92;0.73;;;;;;;;;;5000915;28;20046;-65
2023/01/27 15:14:30;;;;;;;5.05;0.73;;;;;;;;;;5001879;28;20042;-65
2023/01/27 15:17:15;;;;;;;1.60;0.57;;;;;;;;;;5015442;28;20038;-64
2023/01/27 15:19:56;;;;;;;4.22;0.80;;;;;;;;;;5004256;28;20772;-65
2023/01/27 15:22:30;;;;;;;2.13;0.75;;;;;;;;;;5003440;28;20358;-63
2023/01/27 15:24:56;;;;;;;3.92;0.65;;;;;;;;;;5003606;28;21760;-64
2023/01/27 15:27:24;;;;;;;3.58;0.73;;;;;;;;;;5001299;28;20042;-64
2023/01/27 15:29:51;;;;;;;1.85;0.70;;;;;;;;;;5001282;28;20038;-63
2023/01/27 15:32:17;;;;;;;1.80;0.60;;;;;;;;;;5001249;28;20037;-64
2023/01/27 15:34:45;;;;;;;2.05;0.60;;;;;;;;;;4999555;28;20030;-65